Namakagon, WI

9:11 PM CDT on September 01, 2015 (GMT -0500)
RAWS | | Change Station
CLOSE
Current Station
Personal Weather Station
Location: Clam Lake, WI
Elevation: 1500 ft
Nearby Weather Stations

Elev 1500 ft 46.20 °N, 90.97 °W | Updated 1 hour ago

Mostly Cloudy
Mostly Cloudy
72.0 °F
Feels Like 67 °F
N
0.0
Wind Variable Wind from North
Gusts 2.0 mph

Today
High -- | Low -- °F
--% Chance of Precip.
Yesterday
High -- | Low -- °F
Precip. -- in
6:24 AM 7:42 PM
Waning Gibbous, 84% visible
Pressure 29.93 in
Visibility 6.0 miles
Clouds Few 2800 ft
Mostly Cloudy 3500 ft
Mostly Cloudy 4400 ft
Heat Index 67 °F
Dew Point 71.0 °F
Humidity 96%
Rainfall in
Snow Depth Not available.
UV 0 out of 12
Pollen 9.10 out of 12
Air Quality Not available.
Flu Activity Not available.
METAR KASX 020153Z AUTO 00000KT 6SM BR FEW028 BKN035 BKN044 22/22 A2994 RMK AO2 SLP135 T02220217
Pressure 29.93 in
Visibility 6.0 miles
Clouds Few 2800 ft
Mostly Cloudy 3500 ft
Mostly Cloudy 4400 ft
Heat Index 67 °F
Dew Point 71.0 °F
Humidity 96%
Rainfall in
Snow Depth Not available.
UV 0 out of 12
Pollen 9.10 out of 12
Air Quality Not available.
Flu Activity Not available.
METAR KASX 020153Z AUTO 00000KT 6SM BR FEW028 BKN035 BKN044 22/22 A2994 RMK AO2 SLP135 T02220217

10-Day Weather Forecast

×

Almanac

Astronomy

Sep. 01, 2015 Rise Set
Actual Time
Civil Twilight
Nautical Twilight
Astronomical Twilight
Moon
Length of Visible Light
Length of Day
Tomorrow will be .
, % of the Moon is Illuminated

Today's Extremes

State Highs State Lows

Community

WunderPhotos

Upload Photos

1,851,679 photos uploaded!

WunderBlogs® & News

Nearby

Air Quality

  Air Quality AQ Index Pollutant
Not available.

Snow Depth

Station Depth Elevation

Earthquake Activity

City Distance Mag. Time & Date
Minimum magnitude displayed is 2.5.

Coastal Water Temperatures

Place Temperature

Stations

Nearby Weather Stations

Station Location Temp. Windchill Dew Point Humidity Wind Precip. Elev Updated Type